sensor_id;sensor_type;location;lat;lon;timestamp;P1;durP1;ratioP1;P2;durP2;ratioP2
22543;SDS011;11438;52.044;8.716;2023-12-14T00:01:13;4.57;;;2.50;;
22543;SDS011;11438;52.044;8.716;2023-12-14T00:03:39;3.93;;;2.30;;
22543;SDS011;11438;52.044;8.716;2023-12-14T00:06:09;3.27;;;2.07;;
22543;SDS011;11438;52.044;8.716;2023-12-14T00:08:35;3.50;;;1.90;;
22543;SDS011;11438;52.044;8.716;2023-12-14T00:11:07;2.90;;;1.70;;
22543;SDS011;11438;52.044;8.716;2023-12-14T00:13:34;2.23;;;1.57;;
22543;SDS011;11438;52.044;8.716;2023-12-14T00:16:00;2.40;;;1.67;;
22543;SDS011;11438;52.044;8.716;2023-12-14T00:18:26;2.33;;;1.60;;
22543;SDS011;11438;52.044;8.716;2023-12-14T00:20:52;2.17;;;1.43;;
22543;SDS011;11438;52.044;8.716;2023-12-14T00:23:18;2.30;;;1.50;;
22543;SDS011;11438;52.044;8.716;2023-12-14T00:25:44;3.33;;;1.60;;
22543;SDS011;11438;52.044;8.716;2023-12-14T00:28:10;2.03;;;1.47;;
22543;SDS011;11438;52.044;8.716;2023-12-14T00:30:35;2.87;;;1.50;;
22543;SDS011;11438;52.044;8.716;2023-12-14T00:33:01;2.20;;;1.40;;
22543;SDS011;11438;52.044;8.716;2023-12-14T00:35:27;2.40;;;1.60;;
22543;SDS011;11438;52.044;8.716;2023-12-14T00:37:52;2.10;;;1.50;;
22543;SDS011;11438;52.044;8.716;2023-12-14T00:40:18;2.10;;;1.60;;
22543;SDS011;11438;52.044;8.716;2023-12-14T00:42:43;3.20;;;1.50;;
22543;SDS011;11438;52.044;8.716;2023-12-14T00:45:09;2.47;;;1.67;;
22543;SDS011;11438;52.044;8.716;2023-12-14T00:47:35;3.20;;;1.70;;
22543;SDS011;11438;52.044;8.716;2023-12-14T00:50:00;2.20;;;1.73;;
22543;SDS011;11438;52.044;8.716;2023-12-14T00:52:26;2.47;;;1.70;;
22543;SDS011;11438;52.044;8.716;2023-12-14T00:54:51;2.83;;;1.70;;
22543;SDS011;11438;52.044;8.716;2023-12-14T00:57:17;2.87;;;1.73;;
22543;SDS011;11438;52.044;8.716;2023-12-14T00:59:42;2.17;;;1.50;;
22543;SDS011;11438;52.044;8.716;2023-12-14T01:02:08;3.20;;;1.80;;
22543;SDS011;11438;52.044;8.716;2023-12-14T01:04:33;3.20;;;1.40;;
22543;SDS011;11438;52.044;8.716;2023-12-14T01:06:59;2.60;;;1.70;;
22543;SDS011;11438;52.044;8.716;2023-12-14T01:09:25;1.85;;;1.40;;
22543;SDS011;11438;52.044;8.716;2023-12-14T01:11:50;2.40;;;1.50;;
22543;SDS011;11438;52.044;8.716;2023-12-14T01:14:16;2.47;;;1.43;;
22543;SDS011;11438;52.044;8.716;2023-12-14T01:16:41;2.27;;;1.57;;
22543;SDS011;11438;52.044;8.716;2023-12-14T01:19:07;2.60;;;1.60;;
22543;SDS011;11438;52.044;8.716;2023-12-14T01:21:32;2.10;;;1.30;;
22543;SDS011;11438;52.044;8.716;2023-12-14T01:23:58;2.45;;;1.45;;
22543;SDS011;11438;52.044;8.716;2023-12-14T01:26:25;2.13;;;1.43;;
22543;SDS011;11438;52.044;8.716;2023-12-14T01:28:51;3.20;;;1.87;;
22543;SDS011;11438;52.044;8.716;2023-12-14T01:31:17;2.37;;;1.73;;
22543;SDS011;11438;52.044;8.716;2023-12-14T01:33:42;3.57;;;1.93;;
22543;SDS011;11438;52.044;8.716;2023-12-14T01:36:08;3.63;;;1.97;;
22543;SDS011;11438;52.044;8.716;2023-12-14T01:38:34;2.30;;;1.80;;
22543;SDS011;11438;52.044;8.716;2023-12-14T01:40:59;2.83;;;1.97;;
22543;SDS011;11438;52.044;8.716;2023-12-14T01:43:25;3.57;;;2.10;;
22543;SDS011;11438;52.044;8.716;2023-12-14T01:45:51;2.83;;;1.90;;
22543;SDS011;11438;52.044;8.716;2023-12-14T01:48:16;2.50;;;1.93;;
22543;SDS011;11438;52.044;8.716;2023-12-14T01:50:41;2.67;;;1.83;;
22543;SDS011;11438;52.044;8.716;2023-12-14T01:53:07;2.30;;;1.73;;
22543;SDS011;11438;52.044;8.716;2023-12-14T01:55:32;2.77;;;1.90;;
22543;SDS011;11438;52.044;8.716;2023-12-14T01:57:58;2.70;;;1.83;;
22543;SDS011;11438;52.044;8.716;2023-12-14T02:00:30;3.03;;;1.90;;
22543;SDS011;11438;52.044;8.716;2023-12-14T02:03:02;2.03;;;1.53;;
22543;SDS011;11438;52.044;8.716;2023-12-14T02:05:28;1.93;;;1.47;;
22543;SDS011;11438;52.044;8.716;2023-12-14T02:07:54;2.47;;;1.53;;
22543;SDS011;11438;52.044;8.716;2023-12-14T02:10:19;3.13;;;1.70;;
22543;SDS011;11438;52.044;8.716;2023-12-14T02:12:45;3.50;;;1.63;;
22543;SDS011;11438;52.044;8.716;2023-12-14T02:15:11;2.77;;;1.67;;
22543;SDS011;11438;52.044;8.716;2023-12-14T02:17:36;2.60;;;1.30;;
22543;SDS011;11438;52.044;8.716;2023-12-14T02:20:02;3.07;;;1.70;;
22543;SDS011;11438;52.044;8.716;2023-12-14T02:22:32;2.70;;;1.50;;
22543;SDS011;11438;52.044;8.716;2023-12-14T02:25:12;1.80;;;1.40;;
22543;SDS011;11438;52.044;8.716;2023-12-14T02:27:38;1.90;;;1.50;;
22543;SDS011;11438;52.044;8.716;2023-12-14T02:30:03;1.60;;;1.37;;
22543;SDS011;11438;52.044;8.716;2023-12-14T02:32:29;2.70;;;1.70;;
22543;SDS011;11438;52.044;8.716;2023-12-14T02:34:55;2.23;;;1.50;;
22543;SDS011;11438;52.044;8.716;2023-12-14T02:37:20;2.30;;;1.60;;
22543;SDS011;11438;52.044;8.716;2023-12-14T02:39:46;2.83;;;1.60;;
22543;SDS011;11438;52.044;8.716;2023-12-14T02:42:12;2.53;;;1.87;;
22543;SDS011;11438;52.044;8.716;2023-12-14T02:44:37;1.93;;;1.37;;
22543;SDS011;11438;52.044;8.716;2023-12-14T02:47:03;2.37;;;1.77;;
22543;SDS011;11438;52.044;8.716;2023-12-14T02:49:28;3.20;;;2.10;;
22543;SDS011;11438;52.044;8.716;2023-12-14T02:51:54;2.07;;;1.67;;
22543;SDS011;11438;52.044;8.716;2023-12-14T02:54:19;2.23;;;1.83;;
22543;SDS011;11438;52.044;8.716;2023-12-14T02:56:45;4.23;;;2.00;;
22543;SDS011;11438;52.044;8.716;2023-12-14T02:59:10;3.47;;;2.30;;
22543;SDS011;11438;52.044;8.716;2023-12-14T03:01:36;2.23;;;1.83;;
22543;SDS011;11438;52.044;8.716;2023-12-14T03:04:01;2.80;;;2.30;;
22543;SDS011;11438;52.044;8.716;2023-12-14T03:06:27;2.00;;;1.63;;
22543;SDS011;11438;52.044;8.716;2023-12-14T03:08:52;2.90;;;2.13;;
22543;SDS011;11438;52.044;8.716;2023-12-14T03:11:21;3.20;;;1.87;;
22543;SDS011;11438;52.044;8.716;2023-12-14T03:13:50;2.60;;;1.97;;
22543;SDS011;11438;52.044;8.716;2023-12-14T03:16:16;2.70;;;2.00;;
22543;SDS011;11438;52.044;8.716;2023-12-14T03:18:42;2.80;;;2.20;;
22543;SDS011;11438;52.044;8.716;2023-12-14T03:21:09;2.93;;;2.00;;
22543;SDS011;11438;52.044;8.716;2023-12-14T03:23:34;2.60;;;2.10;;
22543;SDS011;11438;52.044;8.716;2023-12-14T03:26:00;4.43;;;2.30;;
22543;SDS011;11438;52.044;8.716;2023-12-14T03:28:26;2.80;;;2.30;;
22543;SDS011;11438;52.044;8.716;2023-12-14T03:30:52;3.10;;;2.47;;
22543;SDS011;11438;52.044;8.716;2023-12-14T03:33:17;3.37;;;2.70;;
22543;SDS011;11438;52.044;8.716;2023-12-14T03:35:43;3.70;;;2.50;;
22543;SDS011;11438;52.044;8.716;2023-12-14T03:38:09;3.47;;;2.70;;
22543;SDS011;11438;52.044;8.716;2023-12-14T03:40:35;3.07;;;2.40;;
22543;SDS011;11438;52.044;8.716;2023-12-14T03:43:00;3.70;;;2.50;;
22543;SDS011;11438;52.044;8.716;2023-12-14T03:45:28;3.33;;;2.30;;
22543;SDS011;11438;52.044;8.716;2023-12-14T03:47:53;2.83;;;2.40;;
22543;SDS011;11438;52.044;8.716;2023-12-14T03:50:19;3.23;;;2.07;;
22543;SDS011;11438;52.044;8.716;2023-12-14T03:52:44;3.00;;;2.03;;
22543;SDS011;11438;52.044;8.716;2023-12-14T03:55:10;3.10;;;2.30;;
22543;SDS011;11438;52.044;8.716;2023-12-14T03:57:35;3.67;;;2.33;;
22543;SDS011;11438;52.044;8.716;2023-12-14T04:00:01;3.43;;;2.30;;
22543;SDS011;11438;52.044;8.716;2023-12-14T04:02:27;3.27;;;2.53;;
22543;SDS011;11438;52.044;8.716;2023-12-14T04:04:52;2.80;;;2.33;;
22543;SDS011;11438;52.044;8.716;2023-12-14T04:07:18;3.80;;;2.40;;
22543;SDS011;11438;52.044;8.716;2023-12-14T04:09:44;2.73;;;2.27;;
22543;SDS011;11438;52.044;8.716;2023-12-14T04:12:10;5.83;;;2.63;;
22543;SDS011;11438;52.044;8.716;2023-12-14T04:14:36;4.03;;;2.87;;
22543;SDS011;11438;52.044;8.716;2023-12-14T04:17:01;3.80;;;2.90;;
22543;SDS011;11438;52.044;8.716;2023-12-14T04:19:27;3.43;;;2.77;;
22543;SDS011;11438;52.044;8.716;2023-12-14T04:21:52;3.37;;;2.70;;
22543;SDS011;11438;52.044;8.716;2023-12-14T04:24:18;3.83;;;2.70;;
22543;SDS011;11438;52.044;8.716;2023-12-14T04:26:43;4.37;;;3.13;;
22543;SDS011;11438;52.044;8.716;2023-12-14T04:29:09;4.50;;;3.30;;
22543;SDS011;11438;52.044;8.716;2023-12-14T04:31:35;5.17;;;3.30;;
22543;SDS011;11438;52.044;8.716;2023-12-14T04:34:01;4.60;;;3.57;;
22543;SDS011;11438;52.044;8.716;2023-12-14T04:36:26;4.63;;;3.37;;
22543;SDS011;11438;52.044;8.716;2023-12-14T04:38:52;3.73;;;3.13;;
22543;SDS011;11438;52.044;8.716;2023-12-14T04:41:17;5.90;;;3.83;;
22543;SDS011;11438;52.044;8.716;2023-12-14T04:43:42;6.13;;;3.47;;
22543;SDS011;11438;52.044;8.716;2023-12-14T04:46:08;4.67;;;3.67;;
22543;SDS011;11438;52.044;8.716;2023-12-14T04:48:33;6.70;;;3.80;;
22543;SDS011;11438;52.044;8.716;2023-12-14T04:50:59;4.63;;;3.30;;
22543;SDS011;11438;52.044;8.716;2023-12-14T04:53:24;4.77;;;3.67;;
22543;SDS011;11438;52.044;8.716;2023-12-14T04:55:50;4.57;;;3.50;;
22543;SDS011;11438;52.044;8.716;2023-12-14T04:58:15;4.53;;;3.30;;
22543;SDS011;11438;52.044;8.716;2023-12-14T05:00:41;4.63;;;3.90;;
22543;SDS011;11438;52.044;8.716;2023-12-14T05:03:06;5.13;;;4.30;;
22543;SDS011;11438;52.044;8.716;2023-12-14T05:05:32;5.30;;;3.97;;
22543;SDS011;11438;52.044;8.716;2023-12-14T05:07:57;8.07;;;4.50;;
22543;SDS011;11438;52.044;8.716;2023-12-14T05:10:23;6.67;;;4.60;;
22543;SDS011;11438;52.044;8.716;2023-12-14T05:12:48;5.87;;;4.07;;
22543;SDS011;11438;52.044;8.716;2023-12-14T05:15:14;5.80;;;3.80;;
22543;SDS011;11438;52.044;8.716;2023-12-14T05:17:39;5.97;;;4.30;;
22543;SDS011;11438;52.044;8.716;2023-12-14T05:20:07;6.37;;;4.33;;
22543;SDS011;11438;52.044;8.716;2023-12-14T05:22:33;6.17;;;4.60;;
22543;SDS011;11438;52.044;8.716;2023-12-14T05:24:59;5.53;;;4.30;;
22543;SDS011;11438;52.044;8.716;2023-12-14T05:27:24;5.10;;;3.93;;
22543;SDS011;11438;52.044;8.716;2023-12-14T05:29:50;5.20;;;3.63;;
22543;SDS011;11438;52.044;8.716;2023-12-14T05:32:16;5.10;;;3.43;;
22543;SDS011;11438;52.044;8.716;2023-12-14T05:34:41;6.97;;;4.37;;
22543;SDS011;11438;52.044;8.716;2023-12-14T05:37:06;5.33;;;3.87;;
22543;SDS011;11438;52.044;8.716;2023-12-14T05:39:32;8.30;;;4.63;;
22543;SDS011;11438;52.044;8.716;2023-12-14T05:41:57;5.83;;;4.30;;
22543;SDS011;11438;52.044;8.716;2023-12-14T05:44:23;6.33;;;4.53;;
22543;SDS011;11438;52.044;8.716;2023-12-14T05:46:50;5.40;;;4.37;;
22543;SDS011;11438;52.044;8.716;2023-12-14T05:49:15;5.73;;;4.47;;
22543;SDS011;11438;52.044;8.716;2023-12-14T05:51:41;7.50;;;4.37;;
22543;SDS011;11438;52.044;8.716;2023-12-14T05:54:06;4.60;;;3.90;;
22543;SDS011;11438;52.044;8.716;2023-12-14T05:56:32;5.70;;;4.50;;
22543;SDS011;11438;52.044;8.716;2023-12-14T05:58:57;5.83;;;4.07;;
22543;SDS011;11438;52.044;8.716;2023-12-14T06:01:24;5.20;;;3.80;;
22543;SDS011;11438;52.044;8.716;2023-12-14T06:03:49;5.63;;;3.93;;
22543;SDS011;11438;52.044;8.716;2023-12-14T06:06:15;5.03;;;3.90;;
22543;SDS011;11438;52.044;8.716;2023-12-14T06:08:40;5.43;;;3.90;;
22543;SDS011;11438;52.044;8.716;2023-12-14T06:11:06;5.57;;;4.07;;
22543;SDS011;11438;52.044;8.716;2023-12-14T06:13:32;6.53;;;4.10;;
22543;SDS011;11438;52.044;8.716;2023-12-14T06:15:58;5.30;;;4.13;;
22543;SDS011;11438;52.044;8.716;2023-12-14T06:18:24;4.87;;;3.60;;
22543;SDS011;11438;52.044;8.716;2023-12-14T06:20:49;5.87;;;4.03;;
22543;SDS011;11438;52.044;8.716;2023-12-14T06:23:15;5.17;;;3.90;;
22543;SDS011;11438;52.044;8.716;2023-12-14T06:25:41;5.57;;;4.30;;
22543;SDS011;11438;52.044;8.716;2023-12-14T06:28:07;4.57;;;3.53;;
22543;SDS011;11438;52.044;8.716;2023-12-14T06:30:33;5.40;;;3.97;;
22543;SDS011;11438;52.044;8.716;2023-12-14T06:32:58;4.50;;;3.43;;
22543;SDS011;11438;52.044;8.716;2023-12-14T06:35:24;5.93;;;3.93;;
22543;SDS011;11438;52.044;8.716;2023-12-14T06:37:49;6.50;;;4.03;;
22543;SDS011;11438;52.044;8.716;2023-12-14T06:40:15;5.13;;;3.80;;
22543;SDS011;11438;52.044;8.716;2023-12-14T06:42:40;5.73;;;3.90;;
22543;SDS011;11438;52.044;8.716;2023-12-14T06:45:07;6.43;;;4.47;;
22543;SDS011;11438;52.044;8.716;2023-12-14T06:47:33;4.60;;;3.80;;
22543;SDS011;11438;52.044;8.716;2023-12-14T06:49:59;5.43;;;4.17;;
22543;SDS011;11438;52.044;8.716;2023-12-14T06:52:24;6.00;;;4.40;;
22543;SDS011;11438;52.044;8.716;2023-12-14T06:54:50;4.43;;;3.60;;
22543;SDS011;11438;52.044;8.716;2023-12-14T06:57:15;6.33;;;4.13;;
22543;SDS011;11438;52.044;8.716;2023-12-14T06:59:41;5.87;;;4.33;;
22543;SDS011;11438;52.044;8.716;2023-12-14T07:02:07;6.47;;;4.20;;
22543;SDS011;11438;52.044;8.716;2023-12-14T07:04:32;5.40;;;4.10;;
22543;SDS011;11438;52.044;8.716;2023-12-14T07:06:58;6.10;;;4.43;;
22543;SDS011;11438;52.044;8.716;2023-12-14T07:09:23;4.77;;;3.83;;
22543;SDS011;11438;52.044;8.716;2023-12-14T07:11:49;5.40;;;3.83;;
22543;SDS011;11438;52.044;8.716;2023-12-14T07:14:15;5.93;;;4.10;;
22543;SDS011;11438;52.044;8.716;2023-12-14T07:16:41;4.83;;;3.90;;
22543;SDS011;11438;52.044;8.716;2023-12-14T07:19:06;4.97;;;4.00;;
22543;SDS011;11438;52.044;8.716;2023-12-14T07:21:32;4.60;;;3.53;;
22543;SDS011;11438;52.044;8.716;2023-12-14T07:23:57;6.67;;;4.40;;
22543;SDS011;11438;52.044;8.716;2023-12-14T07:26:23;4.80;;;3.70;;
22543;SDS011;11438;52.044;8.716;2023-12-14T07:28:49;5.90;;;3.77;;
22543;SDS011;11438;52.044;8.716;2023-12-14T07:31:15;6.43;;;4.53;;
22543;SDS011;11438;52.044;8.716;2023-12-14T07:33:40;5.90;;;4.17;;
22543;SDS011;11438;52.044;8.716;2023-12-14T07:36:06;5.83;;;4.10;;
22543;SDS011;11438;52.044;8.716;2023-12-14T07:38:31;6.07;;;4.63;;
22543;SDS011;11438;52.044;8.716;2023-12-14T07:40:57;5.80;;;4.40;;
22543;SDS011;11438;52.044;8.716;2023-12-14T07:43:23;5.30;;;4.40;;
22543;SDS011;11438;52.044;8.716;2023-12-14T07:45:49;7.80;;;4.53;;
22543;SDS011;11438;52.044;8.716;2023-12-14T07:48:14;5.77;;;4.40;;
22543;SDS011;11438;52.044;8.716;2023-12-14T07:50:40;5.23;;;4.00;;
22543;SDS011;11438;52.044;8.716;2023-12-14T07:53:05;6.30;;;4.13;;
22543;SDS011;11438;52.044;8.716;2023-12-14T07:55:31;9.53;;;4.53;;
22543;SDS011;11438;52.044;8.716;2023-12-14T07:57:56;6.03;;;4.57;;
22543;SDS011;11438;52.044;8.716;2023-12-14T08:00:22;5.07;;;4.30;;
22543;SDS011;11438;52.044;8.716;2023-12-14T08:02:47;7.33;;;4.70;;
22543;SDS011;11438;52.044;8.716;2023-12-14T08:05:13;5.90;;;4.50;;
22543;SDS011;11438;52.044;8.716;2023-12-14T08:07:38;6.13;;;4.50;;
22543;SDS011;11438;52.044;8.716;2023-12-14T08:10:04;5.73;;;4.13;;
22543;SDS011;11438;52.044;8.716;2023-12-14T08:12:30;4.50;;;3.77;;
22543;SDS011;11438;52.044;8.716;2023-12-14T08:14:55;4.43;;;3.27;;
22543;SDS011;11438;52.044;8.716;2023-12-14T08:17:21;4.60;;;3.57;;
22543;SDS011;11438;52.044;8.716;2023-12-14T08:19:46;4.27;;;3.27;;
22543;SDS011;11438;52.044;8.716;2023-12-14T08:22:12;5.37;;;3.50;;
22543;SDS011;11438;52.044;8.716;2023-12-14T08:24:43;4.80;;;3.57;;
22543;SDS011;11438;52.044;8.716;2023-12-14T08:27:09;5.97;;;3.70;;
22543;SDS011;11438;52.044;8.716;2023-12-14T08:29:34;6.13;;;4.13;;
22543;SDS011;11438;52.044;8.716;2023-12-14T08:32:00;5.47;;;4.13;;
22543;SDS011;11438;52.044;8.716;2023-12-14T08:34:26;5.77;;;4.20;;
22543;SDS011;11438;52.044;8.716;2023-12-14T08:36:52;4.57;;;3.50;;
22543;SDS011;11438;52.044;8.716;2023-12-14T08:39:18;5.37;;;4.00;;
22543;SDS011;11438;52.044;8.716;2023-12-14T08:41:45;4.93;;;3.83;;
22543;SDS011;11438;52.044;8.716;2023-12-14T08:44:11;4.47;;;3.90;;
22543;SDS011;11438;52.044;8.716;2023-12-14T08:46:41;4.93;;;3.80;;
22543;SDS011;11438;52.044;8.716;2023-12-14T08:49:07;5.20;;;3.53;;
22543;SDS011;11438;52.044;8.716;2023-12-14T08:51:33;5.87;;;4.07;;
22543;SDS011;11438;52.044;8.716;2023-12-14T08:53:58;5.47;;;3.87;;
22543;SDS011;11438;52.044;8.716;2023-12-14T08:56:24;5.63;;;3.73;;
22543;SDS011;11438;52.044;8.716;2023-12-14T08:58:49;5.07;;;3.67;;
22543;SDS011;11438;52.044;8.716;2023-12-14T09:01:21;4.13;;;3.40;;
22543;SDS011;11438;52.044;8.716;2023-12-14T09:03:47;4.27;;;3.20;;
22543;SDS011;11438;52.044;8.716;2023-12-14T09:06:13;4.93;;;2.87;;
22543;SDS011;11438;52.044;8.716;2023-12-14T09:08:39;5.27;;;3.07;;
22543;SDS011;11438;52.044;8.716;2023-12-14T09:11:05;3.43;;;2.97;;
22543;SDS011;11438;52.044;8.716;2023-12-14T09:13:31;4.03;;;3.20;;
22543;SDS011;11438;52.044;8.716;2023-12-14T09:15:57;3.80;;;3.10;;
22543;SDS011;11438;52.044;8.716;2023-12-14T09:18:22;4.23;;;3.17;;
22543;SDS011;11438;52.044;8.716;2023-12-14T09:20:48;4.33;;;3.30;;
22543;SDS011;11438;52.044;8.716;2023-12-14T09:23:14;4.83;;;3.10;;
22543;SDS011;11438;52.044;8.716;2023-12-14T09:25:40;3.97;;;3.07;;
22543;SDS011;11438;52.044;8.716;2023-12-14T09:28:06;3.43;;;3.03;;
22543;SDS011;11438;52.044;8.716;2023-12-14T09:30:32;3.00;;;2.70;;
22543;SDS011;11438;52.044;8.716;2023-12-14T09:32:58;3.30;;;2.80;;
22543;SDS011;11438;52.044;8.716;2023-12-14T09:35:23;3.17;;;2.57;;
22543;SDS011;11438;52.044;8.716;2023-12-14T09:37:49;3.23;;;2.50;;
22543;SDS011;11438;52.044;8.716;2023-12-14T09:40:14;3.10;;;2.70;;
22543;SDS011;11438;52.044;8.716;2023-12-14T09:42:41;2.70;;;2.50;;
22543;SDS011;11438;52.044;8.716;2023-12-14T09:45:07;3.37;;;2.60;;
22543;SDS011;11438;52.044;8.716;2023-12-14T09:47:34;4.07;;;2.60;;
22543;SDS011;11438;52.044;8.716;2023-12-14T09:50:00;5.37;;;2.90;;
22543;SDS011;11438;52.044;8.716;2023-12-14T09:52:26;3.10;;;2.60;;
22543;SDS011;11438;52.044;8.716;2023-12-14T09:54:51;3.07;;;2.60;;
22543;SDS011;11438;52.044;8.716;2023-12-14T09:57:20;3.97;;;2.90;;
22543;SDS011;11438;52.044;8.716;2023-12-14T09:59:52;3.37;;;2.97;;
22543;SDS011;11438;52.044;8.716;2023-12-14T10:02:18;3.13;;;2.80;;
22543;SDS011;11438;52.044;8.716;2023-12-14T10:04:45;5.67;;;3.40;;
22543;SDS011;11438;52.044;8.716;2023-12-14T10:07:11;3.53;;;3.17;;
22543;SDS011;11438;52.044;8.716;2023-12-14T10:09:37;4.50;;;3.50;;
22543;SDS011;11438;52.044;8.716;2023-12-14T10:12:04;3.43;;;3.10;;
22543;SDS011;11438;52.044;8.716;2023-12-14T10:14:34;3.80;;;3.17;;
22543;SDS011;11438;52.044;8.716;2023-12-14T10:17:19;4.30;;;3.47;;
22543;SDS011;11438;52.044;8.716;2023-12-14T10:19:46;3.97;;;3.40;;
22543;SDS011;11438;52.044;8.716;2023-12-14T10:22:13;4.10;;;3.70;;
22543;SDS011;11438;52.044;8.716;2023-12-14T10:24:42;4.03;;;3.40;;
22543;SDS011;11438;52.044;8.716;2023-12-14T10:27:09;4.70;;;3.80;;
22543;SDS011;11438;52.044;8.716;2023-12-14T10:29:38;3.93;;;3.50;;
22543;SDS011;11438;52.044;8.716;2023-12-14T10:32:05;4.43;;;3.80;;
22543;SDS011;11438;52.044;8.716;2023-12-14T10:34:35;4.83;;;4.27;;
22543;SDS011;11438;52.044;8.716;2023-12-14T10:37:01;6.37;;;4.63;;
22543;SDS011;11438;52.044;8.716;2023-12-14T10:39:29;6.80;;;4.70;;
22543;SDS011;11438;52.044;8.716;2023-12-14T10:41:55;6.20;;;4.77;;
22543;SDS011;11438;52.044;8.716;2023-12-14T10:44:26;5.00;;;4.50;;
22543;SDS011;11438;52.044;8.716;2023-12-14T10:46:54;5.57;;;4.77;;
22543;SDS011;11438;52.044;8.716;2023-12-14T10:49:23;5.40;;;4.67;;
22543;SDS011;11438;52.044;8.716;2023-12-14T10:51:50;5.13;;;4.53;;
22543;SDS011;11438;52.044;8.716;2023-12-14T10:54:18;5.93;;;4.93;;
22543;SDS011;11438;52.044;8.716;2023-12-14T10:56:44;5.33;;;4.60;;
22543;SDS011;11438;52.044;8.716;2023-12-14T10:59:09;5.80;;;4.67;;
22543;SDS011;11438;52.044;8.716;2023-12-14T11:01:35;5.43;;;4.30;;
22543;SDS011;11438;52.044;8.716;2023-12-14T11:04:04;4.30;;;3.83;;
22543;SDS011;11438;52.044;8.716;2023-12-14T11:06:32;4.73;;;4.00;;
22543;SDS011;11438;52.044;8.716;2023-12-14T11:09:01;4.23;;;3.53;;
22543;SDS011;11438;52.044;8.716;2023-12-14T11:11:39;3.90;;;3.50;;
22543;SDS011;11438;52.044;8.716;2023-12-14T11:14:08;4.47;;;3.90;;
22543;SDS011;11438;52.044;8.716;2023-12-14T11:16:37;4.23;;;3.80;;
22543;SDS011;11438;52.044;8.716;2023-12-14T11:24:18;4.27;;;3.30;;
22543;SDS011;11438;52.044;8.716;2023-12-14T11:26:44;3.30;;;3.00;;
22543;SDS011;11438;52.044;8.716;2023-12-14T11:29:09;4.13;;;2.63;;
22543;SDS011;11438;52.044;8.716;2023-12-14T11:31:35;3.30;;;2.63;;
22543;SDS011;11438;52.044;8.716;2023-12-14T11:34:00;2.90;;;2.60;;
22543;SDS011;11438;52.044;8.716;2023-12-14T11:36:28;4.07;;;2.40;;
22543;SDS011;11438;52.044;8.716;2023-12-14T11:38:54;3.10;;;2.23;;
22543;SDS011;11438;52.044;8.716;2023-12-14T11:41:20;2.53;;;2.03;;
22543;SDS011;11438;52.044;8.716;2023-12-14T11:43:46;2.50;;;2.30;;
22543;SDS011;11438;52.044;8.716;2023-12-14T11:46:12;2.90;;;2.40;;
22543;SDS011;11438;52.044;8.716;2023-12-14T11:48:39;4.10;;;2.33;;
22543;SDS011;11438;52.044;8.716;2023-12-14T11:51:04;2.43;;;2.23;;
22543;SDS011;11438;52.044;8.716;2023-12-14T11:53:30;2.37;;;2.13;;
22543;SDS011;11438;52.044;8.716;2023-12-14T11:55:56;3.03;;;2.50;;
22543;SDS011;11438;52.044;8.716;2023-12-14T11:58:21;2.40;;;2.20;;
22543;SDS011;11438;52.044;8.716;2023-12-14T12:00:49;3.63;;;2.37;;
22543;SDS011;11438;52.044;8.716;2023-12-14T12:03:15;2.77;;;2.47;;
22543;SDS011;11438;52.044;8.716;2023-12-14T12:05:43;2.87;;;2.40;;
22543;SDS011;11438;52.044;8.716;2023-12-14T12:08:10;4.13;;;2.60;;
22543;SDS011;11438;52.044;8.716;2023-12-14T12:10:37;2.57;;;2.10;;
22543;SDS011;11438;52.044;8.716;2023-12-14T12:13:05;3.03;;;2.20;;
22543;SDS011;11438;52.044;8.716;2023-12-14T12:15:33;2.80;;;2.30;;
22543;SDS011;11438;52.044;8.716;2023-12-14T12:18:02;3.03;;;2.27;;
22543;SDS011;11438;52.044;8.716;2023-12-14T12:20:29;2.40;;;2.10;;
22543;SDS011;11438;52.044;8.716;2023-12-14T12:22:54;5.53;;;2.00;;
22543;SDS011;11438;52.044;8.716;2023-12-14T12:25:20;2.87;;;2.43;;
22543;SDS011;11438;52.044;8.716;2023-12-14T12:27:46;2.60;;;2.20;;
22543;SDS011;11438;52.044;8.716;2023-12-14T12:30:12;4.37;;;2.47;;
22543;SDS011;11438;52.044;8.716;2023-12-14T12:32:38;2.40;;;2.20;;
22543;SDS011;11438;52.044;8.716;2023-12-14T12:35:04;3.97;;;2.03;;
22543;SDS011;11438;52.044;8.716;2023-12-14T12:37:30;3.37;;;2.67;;
22543;SDS011;11438;52.044;8.716;2023-12-14T12:39:55;3.93;;;2.60;;
22543;SDS011;11438;52.044;8.716;2023-12-14T12:42:21;3.03;;;2.73;;
22543;SDS011;11438;52.044;8.716;2023-12-14T12:44:46;3.00;;;2.50;;
22543;SDS011;11438;52.044;8.716;2023-12-14T12:47:12;3.73;;;2.63;;
22543;SDS011;11438;52.044;8.716;2023-12-14T12:49:38;2.60;;;2.40;;
22543;SDS011;11438;52.044;8.716;2023-12-14T12:52:03;2.83;;;2.50;;
22543;SDS011;11438;52.044;8.716;2023-12-14T12:54:30;3.63;;;2.50;;
22543;SDS011;11438;52.044;8.716;2023-12-14T12:56:57;3.10;;;2.70;;
22543;SDS011;11438;52.044;8.716;2023-12-14T12:59:22;3.83;;;2.70;;
22543;SDS011;11438;52.044;8.716;2023-12-14T13:01:48;3.07;;;2.50;;
22543;SDS011;11438;52.044;8.716;2023-12-14T13:04:20;3.30;;;2.90;;
22543;SDS011;11438;52.044;8.716;2023-12-14T13:06:49;3.40;;;2.87;;
22543;SDS011;11438;52.044;8.716;2023-12-14T13:09:15;6.57;;;3.00;;
22543;SDS011;11438;52.044;8.716;2023-12-14T13:11:42;3.20;;;2.90;;
22543;SDS011;11438;52.044;8.716;2023-12-14T13:14:11;3.30;;;2.80;;
22543;SDS011;11438;52.044;8.716;2023-12-14T13:16:36;4.00;;;3.27;;
22543;SDS011;11438;52.044;8.716;2023-12-14T13:19:03;3.27;;;2.80;;
22543;SDS011;11438;52.044;8.716;2023-12-14T13:21:31;3.97;;;2.37;;
22543;SDS011;11438;52.044;8.716;2023-12-14T13:23:58;3.27;;;2.97;;
22543;SDS011;11438;52.044;8.716;2023-12-14T13:26:24;3.13;;;2.80;;
22543;SDS011;11438;52.044;8.716;2023-12-14T13:28:50;3.17;;;2.88;;
22543;SDS011;11438;52.044;8.716;2023-12-14T13:31:16;2.57;;;2.37;;
22543;SDS011;11438;52.044;8.716;2023-12-14T13:33:42;3.13;;;2.80;;
22543;SDS011;11438;52.044;8.716;2023-12-14T13:36:07;2.83;;;2.53;;
22543;SDS011;11438;52.044;8.716;2023-12-14T13:38:33;3.30;;;2.73;;
22543;SDS011;11438;52.044;8.716;2023-12-14T13:41:01;3.33;;;2.67;;
22543;SDS011;11438;52.044;8.716;2023-12-14T13:43:27;3.10;;;2.67;;
22543;SDS011;11438;52.044;8.716;2023-12-14T13:45:53;3.03;;;2.60;;
22543;SDS011;11438;52.044;8.716;2023-12-14T13:48:22;5.00;;;2.77;;
22543;SDS011;11438;52.044;8.716;2023-12-14T13:50:52;3.20;;;2.80;;
22543;SDS011;11438;52.044;8.716;2023-12-14T13:53:21;3.47;;;2.90;;
22543;SDS011;11438;52.044;8.716;2023-12-14T13:55:47;3.30;;;2.90;;
22543;SDS011;11438;52.044;8.716;2023-12-14T13:58:16;3.57;;;2.73;;
22543;SDS011;11438;52.044;8.716;2023-12-14T14:00:43;3.17;;;2.87;;
22543;SDS011;11438;52.044;8.716;2023-12-14T14:03:09;3.67;;;2.80;;
22543;SDS011;11438;52.044;8.716;2023-12-14T14:05:35;3.17;;;2.47;;
22543;SDS011;11438;52.044;8.716;2023-12-14T14:08:00;3.33;;;2.53;;
22543;SDS011;11438;52.044;8.716;2023-12-14T14:10:26;3.30;;;2.70;;
22543;SDS011;11438;52.044;8.716;2023-12-14T14:12:52;3.70;;;2.53;;
22543;SDS011;11438;52.044;8.716;2023-12-14T14:15:17;3.00;;;2.70;;
22543;SDS011;11438;52.044;8.716;2023-12-14T14:17:44;3.13;;;2.50;;
22543;SDS011;11438;52.044;8.716;2023-12-14T14:20:12;3.17;;;2.37;;
22543;SDS011;11438;52.044;8.716;2023-12-14T14:22:38;4.20;;;2.50;;
22543;SDS011;11438;52.044;8.716;2023-12-14T14:25:04;3.03;;;2.47;;
22543;SDS011;11438;52.044;8.716;2023-12-14T14:27:31;3.40;;;2.20;;
22543;SDS011;11438;52.044;8.716;2023-12-14T14:29:59;2.63;;;2.27;;
22543;SDS011;11438;52.044;8.716;2023-12-14T14:32:25;2.53;;;2.17;;
22543;SDS011;11438;52.044;8.716;2023-12-14T14:34:51;3.47;;;2.60;;
22543;SDS011;11438;52.044;8.716;2023-12-14T14:37:18;2.83;;;2.27;;
22543;SDS011;11438;52.044;8.716;2023-12-14T14:39:43;2.90;;;1.90;;
22543;SDS011;11438;52.044;8.716;2023-12-14T14:42:09;2.47;;;2.17;;
22543;SDS011;11438;52.044;8.716;2023-12-14T14:44:34;3.23;;;2.40;;
22543;SDS011;11438;52.044;8.716;2023-12-14T14:47:00;2.70;;;2.10;;